Time,TemperatureF,DewpointF,PressureIn,WindDirection,WindDirectionDegrees,WindSpeedMPH,WindSpeedGustMPH,Humidity,HourlyPrecipIn,Conditions,Clouds,dailyrainin,SoftwareType,DateUTC
2013-07-15 00:02:00,70.0,70.0,30.20,North,0,0.0,-999.0,100,-99.99,,,-99.99,,2013-07-15 05:02:00,
2013-07-15 00:21:00,70.0,70.0,30.20,North,0,0.0,-999.0,100,-99.99,,,-99.99,,2013-07-15 05:21:00,
2013-07-15 00:32:00,70.0,70.0,30.20,North,0,0.0,-999.0,100,-99.99,,,-99.99,,2013-07-15 05:32:00,
2013-07-15 00:43:00,70.0,70.0,30.20,North,0,0.0,-999.0,100,-99.99,,,-99.99,,2013-07-15 05:43:00,
2013-07-15 01:02:00,70.0,68.0,30.20,North,0,0.0,-999.0,94,-99.99,,,-99.99,,2013-07-15 06:02:00,
2013-07-15 01:22:00,68.0,66.0,30.20,North,0,0.0,-999.0,93,-99.99,,,-99.99,,2013-07-15 06:22:00,
2013-07-15 01:32:00,68.0,66.0,30.20,North,0,0.0,-999.0,93,-99.99,,,-99.99,,2013-07-15 06:32:00,
2013-07-15 01:42:00,68.0,66.0,30.20,North,0,0.0,-999.0,93,-99.99,,,-99.99,,2013-07-15 06:42:00,
2013-07-15 02:01:00,66.0,66.0,30.20,North,0,0.0,-999.0,100,-99.99,,,-99.99,,2013-07-15 07:01:00,
2013-07-15 02:21:00,66.0,66.0,30.20,North,0,0.0,-999.0,100,-99.99,,,-99.99,,2013-07-15 07:21:00,
2013-07-15 02:32:00,66.0,64.0,30.20,North,0,0.0,-999.0,93,-99.99,,,-99.99,,2013-07-15 07:32:00,
2013-07-15 02:43:00,66.0,64.0,30.20,North,0,0.0,-999.0,93,-99.99,,,-99.99,,2013-07-15 07:43:00,
2013-07-15 03:01:00,66.0,64.0,30.20,North,0,0.0,-999.0,93,-99.99,,,-99.99,,2013-07-15 08:01:00,
2013-07-15 03:22:00,70.0,64.0,30.20,North,0,0.0,-999.0,82,-99.99,,,-99.99,,2013-07-15 08:22:00,
2013-07-15 03:32:00,70.0,64.0,30.20,North,0,0.0,-999.0,82,-99.99,,,-99.99,,2013-07-15 08:32:00,
2013-07-15 03:43:00,70.0,64.0,30.20,North,0,0.0,-999.0,82,-99.99,,,-99.99,,2013-07-15 08:43:00,
2013-07-15 04:01:00,70.0,64.0,30.20,North,0,0.0,-999.0,82,-99.99,,,-99.99,,2013-07-15 09:01:00,
2013-07-15 04:22:00,70.0,64.0,30.20,North,0,0.0,-999.0,82,-99.99,,,-99.99,,2013-07-15 09:22:00,
2013-07-15 04:32:00,66.0,63.0,30.21,North,0,0.0,-999.0,88,-99.99,,,-99.99,,2013-07-15 09:32:00,
2013-07-15 04:43:00,66.0,63.0,30.21,North,0,0.0,-999.0,88,-99.99,,,-99.99,,2013-07-15 09:43:00,
2013-07-15 05:02:00,68.0,64.0,30.20,North,0,0.0,-999.0,88,-99.99,,,-99.99,,2013-07-15 10:02:00,
2013-07-15 05:22:00,68.0,63.0,30.21,North,0,0.0,-999.0,82,-99.99,,,-99.99,,2013-07-15 10:22:00,
2013-07-15 05:43:00,66.0,63.0,30.21,North,0,0.0,-999.0,88,-99.99,,,-99.99,,2013-07-15 10:43:00,
2013-07-15 06:01:00,64.0,63.0,30.22,North,0,0.0,-999.0,93,-99.99,,,-99.99,,2013-07-15 11:01:00,
2013-07-15 06:22:00,64.0,63.0,30.22,North,0,0.0,-999.0,93,-99.99,,,-99.99,,2013-07-15 11:22:00,
2013-07-15 06:32:00,66.0,63.0,30.22,North,0,0.0,-999.0,88,-99.99,,,-99.99,,2013-07-15 11:32:00,
2013-07-15 06:42:00,66.0,63.0,30.22,North,0,0.0,-999.0,88,-99.99,,,-99.99,,2013-07-15 11:42:00,
2013-07-15 07:01:00,66.0,63.0,30.22,North,0,0.0,-999.0,88,-99.99,,,-99.99,,2013-07-15 12:01:00,
2013-07-15 07:22:00,66.0,63.0,30.23,North,0,0.0,-999.0,88,-99.99,,,-99.99,,2013-07-15 12:22:00,
2013-07-15 07:32:00,68.0,63.0,30.23,SSE,150,5.0,-999.0,82,-99.99,,,-99.99,,2013-07-15 12:32:00,
2013-07-15 07:42:00,68.0,63.0,30.23,SSE,150,5.0,-999.0,82,-99.99,,,-99.99,,2013-07-15 12:42:00,
2013-07-15 08:01:00,70.0,64.0,30.23,North,0,0.0,-999.0,82,-99.99,,,-99.99,,2013-07-15 13:01:00,
2013-07-15 08:22:00,70.0,63.0,30.24,South,170,5.0,-999.0,77,-99.99,,,-99.99,,2013-07-15 13:22:00,
2013-07-15 08:33:00,70.0,64.0,30.24,North,0,0.0,-999.0,82,-99.99,,,-99.99,,2013-07-15 13:33:00,
2013-07-15 08:43:00,70.0,64.0,30.24,North,0,0.0,-999.0,82,-99.99,,,-99.99,,2013-07-15 13:43:00,
2013-07-15 09:02:00,72.0,64.0,30.24,South,190,5.0,-999.0,78,-99.99,,,-99.99,,2013-07-15 14:02:00,
2013-07-15 09:22:00,72.0,64.0,30.25,SSE,160,6.0,-999.0,78,-99.99,,,-99.99,,2013-07-15 14:22:00,
2013-07-15 09:42:00,73.0,66.0,30.25,SE,140,5.0,-999.0,78,-99.99,,,-99.99,,2013-07-15 14:42:00,
2013-07-15 10:03:00,73.0,66.0,30.25,South,170,7.0,-999.0,78,-99.99,,,-99.99,,2013-07-15 15:03:00,
2013-07-15 10:15:00,75.0,68.0,30.25,SE,140,5.0,-999.0,78,-99.99,,,-99.99,,2013-07-15 15:15:00,
2013-07-15 10:45:00,77.0,68.0,30.25,North,0,0.0,-999.0,73,-99.99,,,-99.99,,2013-07-15 15:45:00,
2013-07-15 10:53:00,79.0,66.0,30.24,South,190,6.0,-999.0,65,-99.99,,,-99.99,,2013-07-15 15:53:00,
2013-07-15 11:06:00,79.0,66.0,30.24,South,190,6.0,-999.0,65,-99.99,,,-99.99,,2013-07-15 16:06:00,
2013-07-15 11:24:00,79.0,66.0,30.24,SSE,150,9.0,-999.0,65,-99.99,,,-99.99,,2013-07-15 16:24:00,
2013-07-15 11:32:00,79.0,68.0,30.24,SE,130,6.0,-999.0,69,-99.99,,,-99.99,,2013-07-15 16:32:00,
2013-07-15 11:44:00,79.0,68.0,30.24,SE,130,6.0,-999.0,69,-99.99,,,-99.99,,2013-07-15 16:44:00,
2013-07-15 12:04:00,81.0,70.0,30.24,SE,140,8.0,-999.0,69,-99.99,,,-99.99,,2013-07-15 17:04:00,
2013-07-15 12:23:00,81.0,66.0,30.24,SE,140,7.0,-999.0,61,-99.99,,,-99.99,,2013-07-15 17:23:00,
2013-07-15 12:36:00,81.0,66.0,30.24,SSE,150,7.0,-999.0,61,-99.99,,,-99.99,,2013-07-15 17:36:00,
2013-07-15 12:47:00,81.0,66.0,30.24,SSE,150,7.0,-999.0,61,-99.99,,,-99.99,,2013-07-15 17:47:00,
2013-07-15 12:55:00,81.0,64.0,30.24,South,170,6.0,-999.0,57,-99.99,,,-99.99,,2013-07-15 17:55:00,
2013-07-15 13:04:00,81.0,64.0,30.24,South,170,6.0,-999.0,57,-99.99,,,-99.99,,2013-07-15 18:04:00,
2013-07-15 13:26:00,82.0,66.0,30.23,SE,140,9.0,-999.0,58,-99.99,,,-99.99,,2013-07-15 18:26:00,
2013-07-15 13:35:00,82.0,66.0,30.23,SSE,150,8.0,-999.0,58,-99.99,,,-99.99,,2013-07-15 18:35:00,
2013-07-15 13:45:00,82.0,66.0,30.23,SSE,150,8.0,-999.0,58,-99.99,,,-99.99,,2013-07-15 18:45:00,
2013-07-15 14:05:00,82.0,64.0,30.23,SSE,160,10.0,16.0,54,-99.99,,,-99.99,,2013-07-15 19:05:00,
2013-07-15 14:24:00,82.0,64.0,30.22,SE,140,10.0,17.0,54,-99.99,,,-99.99,,2013-07-15 19:24:00,
2013-07-15 14:34:00,82.0,66.0,30.22,South,180,8.0,-999.0,58,-99.99,,,-99.99,,2013-07-15 19:34:00,
2013-07-15 14:46:00,82.0,66.0,30.22,South,180,8.0,-999.0,58,-99.99,,,-99.99,,2013-07-15 19:46:00,
2013-07-15 14:55:00,82.0,63.0,30.22,SSE,150,13.0,17.0,51,-99.99,,,-99.99,,2013-07-15 19:55:00,
2013-07-15 15:05:00,82.0,63.0,30.22,SSE,150,13.0,17.0,51,-99.99,,,-99.99,,2013-07-15 20:05:00,
2013-07-15 15:15:00,82.0,64.0,30.21,SSE,150,9.0,-999.0,54,-99.99,,,-99.99,,2013-07-15 20:15:00,
2013-07-15 15:26:00,82.0,64.0,30.21,SSE,150,9.0,-999.0,54,-99.99,,,-99.99,,2013-07-15 20:26:00,
2013-07-15 15:35:00,82.0,64.0,30.20,SSE,150,8.0,-999.0,54,-99.99,,,-99.99,,2013-07-15 20:35:00,
2013-07-15 15:43:00,82.0,64.0,30.20,SSE,150,8.0,-999.0,54,-99.99,,,-99.99,,2013-07-15 20:43:00,
2013-07-15 16:02:00,84.0,68.0,30.20,SSE,150,8.0,-999.0,58,-99.99,,,-99.99,,2013-07-15 21:02:00,
2013-07-15 16:23:00,84.0,66.0,30.19,SSE,160,10.0,16.0,54,-99.99,,,-99.99,,2013-07-15 21:23:00,
2013-07-15 16:36:00,84.0,68.0,30.19,South,170,10.0,15.0,58,-99.99,,,-99.99,,2013-07-15 21:36:00,
2013-07-15 16:46:00,84.0,68.0,30.19,South,170,10.0,15.0,58,-99.99,,,-99.99,,2013-07-15 21:46:00,
2013-07-15 17:02:00,84.0,66.0,30.19,SSE,160,8.0,-999.0,54,-99.99,,,-99.99,,2013-07-15 22:02:00,
2013-07-15 17:22:00,84.0,68.0,30.18,SSE,160,7.0,-999.0,58,-99.99,,,-99.99,,2013-07-15 22:22:00,
2013-07-15 17:43:00,84.0,66.0,30.18,South,180,8.0,-999.0,54,-99.99,,,-99.99,,2013-07-15 22:43:00,
2013-07-15 18:05:00,84.0,68.0,30.17,South,170,6.0,-999.0,58,-99.99,,,-99.99,,2013-07-15 23:05:00,
2013-07-15 18:26:00,84.0,68.0,30.17,South,180,9.0,-999.0,58,-99.99,,,-99.99,,2013-07-15 23:26:00,
2013-07-15 18:36:00,84.0,68.0,30.17,SSE,160,7.0,-999.0,58,-99.99,,,-99.99,,2013-07-15 23:36:00,
2013-07-15 18:46:00,84.0,68.0,30.17,SSE,160,7.0,-999.0,58,-99.99,,,-99.99,,2013-07-15 23:46:00,
2013-07-15 19:03:00,82.0,70.0,30.16,SE,140,5.0,-999.0,65,-99.99,,,-99.99,,2013-07-16 00:03:00,
2013-07-15 19:25:00,82.0,70.0,30.16,SSE,150,7.0,-999.0,65,-99.99,,,-99.99,,2013-07-16 00:25:00,
2013-07-15 19:45:00,82.0,70.0,30.16,SE,140,6.0,-999.0,65,-99.99,,,-99.99,,2013-07-16 00:45:00,
2013-07-15 20:06:00,82.0,72.0,30.16,SSE,150,5.0,-999.0,69,-99.99,,,-99.99,,2013-07-16 01:06:00,
2013-07-15 20:25:00,82.0,70.0,30.16,North,0,0.0,-999.0,65,-99.99,,,-99.99,,2013-07-16 01:25:00,
2013-07-15 20:35:00,81.0,70.0,30.16,North,0,0.0,-999.0,69,-99.99,,,-99.99,,2013-07-16 01:35:00,
2013-07-15 20:47:00,81.0,70.0,30.16,North,0,0.0,-999.0,69,-99.99,,,-99.99,,2013-07-16 01:47:00,
2013-07-15 21:03:00,81.0,72.0,30.17,North,0,0.0,-999.0,74,-99.99,,,-99.99,,2013-07-16 02:03:00,
2013-07-15 21:26:00,79.0,72.0,30.17,North,0,0.0,-999.0,78,-99.99,,,-99.99,,2013-07-16 02:26:00,
2013-07-15 21:35:00,79.0,72.0,30.17,North,0,0.0,-999.0,78,-99.99,,,-99.99,,2013-07-16 02:35:00,
2013-07-15 21:47:00,79.0,72.0,30.17,North,0,0.0,-999.0,78,-99.99,,,-99.99,,2013-07-16 02:47:00,
2013-07-15 22:06:00,75.0,72.0,30.17,North,0,0.0,-999.0,88,-99.99,,,-99.99,,2013-07-16 03:06:00,
2013-07-15 22:26:00,75.0,72.0,30.18,North,0,0.0,-999.0,88,-99.99,,,-99.99,,2013-07-16 03:26:00,
2013-07-15 22:47:00,75.0,73.0,30.18,North,0,0.0,-999.0,94,-99.99,,,-99.99,,2013-07-16 03:47:00,
2013-07-15 23:01:00,75.0,72.0,30.18,North,0,0.0,-999.0,88,-99.99,,,-99.99,,2013-07-16 04:01:00,
2013-07-15 23:22:00,73.0,72.0,30.19,North,0,0.0,-999.0,94,-99.99,,,-99.99,,2013-07-16 04:22:00,
2013-07-15 23:43:00,73.0,72.0,30.19,North,0,0.0,-999.0,94,-99.99,,,-99.99,,2013-07-16 04:43:00,